sensor_id;sensor_type;location;lat;lon;timestamp;P1;durP1;ratioP1;P2;durP2;ratioP2
18754;SDS011;35061;47.664;9.166;2023-05-01T00:02:22;4.43;;;3.40;;
18754;SDS011;35061;47.664;9.166;2023-05-01T00:04:50;3.10;;;2.80;;
18754;SDS011;35061;47.664;9.166;2023-05-01T00:07:18;4.78;;;3.30;;
18754;SDS011;35061;47.664;9.166;2023-05-01T00:09:47;4.12;;;3.40;;
18754;SDS011;35061;47.664;9.166;2023-05-01T00:12:15;4.53;;;3.53;;
18754;SDS011;35061;47.664;9.166;2023-05-01T00:14:43;5.85;;;3.35;;
18754;SDS011;35061;47.664;9.166;2023-05-01T00:17:11;3.42;;;3.10;;
18754;SDS011;35061;47.664;9.166;2023-05-01T00:19:39;4.43;;;3.15;;
18754;SDS011;35061;47.664;9.166;2023-05-01T00:22:07;3.53;;;3.22;;
18754;SDS011;35061;47.664;9.166;2023-05-01T00:24:35;3.80;;;3.12;;
18754;SDS011;35061;47.664;9.166;2023-05-01T00:27:03;3.62;;;3.10;;
18754;SDS011;35061;47.664;9.166;2023-05-01T00:29:32;3.35;;;2.87;;
18754;SDS011;35061;47.664;9.166;2023-05-01T00:32:00;3.20;;;2.90;;
18754;SDS011;35061;47.664;9.166;2023-05-01T00:34:28;3.42;;;3.12;;
18754;SDS011;35061;47.664;9.166;2023-05-01T00:36:56;3.62;;;3.28;;
18754;SDS011;35061;47.664;9.166;2023-05-01T00:39:25;6.37;;;3.53;;
18754;SDS011;35061;47.664;9.166;2023-05-01T00:41:53;3.60;;;3.30;;
18754;SDS011;35061;47.664;9.166;2023-05-01T00:44:22;4.00;;;3.03;;
18754;SDS011;35061;47.664;9.166;2023-05-01T00:46:50;3.22;;;2.90;;
18754;SDS011;35061;47.664;9.166;2023-05-01T00:49:18;3.97;;;3.58;;
18754;SDS011;35061;47.664;9.166;2023-05-01T00:51:47;3.85;;;2.90;;
18754;SDS011;35061;47.664;9.166;2023-05-01T00:54:19;3.40;;;3.10;;
18754;SDS011;35061;47.664;9.166;2023-05-01T00:56:50;3.92;;;3.60;;
18754;SDS011;35061;47.664;9.166;2023-05-01T00:59:19;3.62;;;3.33;;
18754;SDS011;35061;47.664;9.166;2023-05-01T01:01:47;4.03;;;3.08;;
18754;SDS011;35061;47.664;9.166;2023-05-01T01:04:15;3.55;;;3.25;;
18754;SDS011;35061;47.664;9.166;2023-05-01T01:12:08;3.78;;;3.35;;
18754;SDS011;35061;47.664;9.166;2023-05-01T01:17:33;4.62;;;3.60;;
18754;SDS011;35061;47.664;9.166;2023-05-01T01:22:46;4.57;;;4.00;;
18754;SDS011;35061;47.664;9.166;2023-05-01T01:31:20;4.97;;;4.07;;
18754;SDS011;35061;47.664;9.166;2023-05-01T01:34:28;3.92;;;3.62;;
18754;SDS011;35061;47.664;9.166;2023-05-01T01:39:57;4.82;;;4.15;;
18754;SDS011;35061;47.664;9.166;2023-05-01T01:42:33;4.25;;;3.85;;
18754;SDS011;35061;47.664;9.166;2023-05-01T01:45:10;4.43;;;4.03;;
18754;SDS011;35061;47.664;9.166;2023-05-01T01:47:45;5.95;;;4.20;;
18754;SDS011;35061;47.664;9.166;2023-05-01T01:50:14;5.35;;;4.75;;
18754;SDS011;35061;47.664;9.166;2023-05-01T01:52:46;4.53;;;4.12;;
18754;SDS011;35061;47.664;9.166;2023-05-01T01:55:16;5.10;;;4.65;;
18754;SDS011;35061;47.664;9.166;2023-05-01T01:57:48;4.93;;;4.35;;
18754;SDS011;35061;47.664;9.166;2023-05-01T02:00:18;4.90;;;4.40;;
18754;SDS011;35061;47.664;9.166;2023-05-01T02:02:47;6.10;;;4.55;;
18754;SDS011;35061;47.664;9.166;2023-05-01T02:05:16;6.35;;;4.57;;
18754;SDS011;35061;47.664;9.166;2023-05-01T02:07:46;5.70;;;4.72;;
18754;SDS011;35061;47.664;9.166;2023-05-01T02:10:16;5.10;;;4.40;;
18754;SDS011;35061;47.664;9.166;2023-05-01T02:12:47;4.90;;;4.50;;
18754;SDS011;35061;47.664;9.166;2023-05-01T02:15:17;5.00;;;4.57;;
18754;SDS011;35061;47.664;9.166;2023-05-01T02:17:47;5.37;;;4.55;;
18754;SDS011;35061;47.664;9.166;2023-05-01T02:20:18;5.10;;;4.70;;
18754;SDS011;35061;47.664;9.166;2023-05-01T02:22:47;4.90;;;4.50;;
18754;SDS011;35061;47.664;9.166;2023-05-01T02:25:19;5.80;;;5.28;;
18754;SDS011;35061;47.664;9.166;2023-05-01T02:28:01;6.12;;;5.05;;
18754;SDS011;35061;47.664;9.166;2023-05-01T02:30:34;4.65;;;4.10;;
18754;SDS011;35061;47.664;9.166;2023-05-01T02:33:02;8.07;;;5.03;;
18754;SDS011;35061;47.664;9.166;2023-05-01T02:35:30;5.55;;;5.05;;
18754;SDS011;35061;47.664;9.166;2023-05-01T02:37:58;5.47;;;4.93;;
18754;SDS011;35061;47.664;9.166;2023-05-01T02:40:26;5.30;;;4.68;;
18754;SDS011;35061;47.664;9.166;2023-05-01T02:42:55;5.87;;;5.00;;
18754;SDS011;35061;47.664;9.166;2023-05-01T02:45:24;5.53;;;4.90;;
18754;SDS011;35061;47.664;9.166;2023-05-01T02:47:55;6.05;;;5.45;;
18754;SDS011;35061;47.664;9.166;2023-05-01T02:50:26;6.35;;;5.18;;
18754;SDS011;35061;47.664;9.166;2023-05-01T02:52:55;6.10;;;5.50;;
18754;SDS011;35061;47.664;9.166;2023-05-01T02:55:23;7.15;;;5.35;;
18754;SDS011;35061;47.664;9.166;2023-05-01T02:57:51;6.15;;;5.55;;
18754;SDS011;35061;47.664;9.166;2023-05-01T03:00:19;6.20;;;5.62;;
18754;SDS011;35061;47.664;9.166;2023-05-01T03:02:47;6.18;;;5.47;;
18754;SDS011;35061;47.664;9.166;2023-05-01T03:05:15;7.12;;;5.90;;
18754;SDS011;35061;47.664;9.166;2023-05-01T03:07:43;6.70;;;6.07;;
18754;SDS011;35061;47.664;9.166;2023-05-01T03:10:12;6.53;;;5.53;;
18754;SDS011;35061;47.664;9.166;2023-05-01T03:12:40;7.05;;;5.57;;
18754;SDS011;35061;47.664;9.166;2023-05-01T03:15:08;6.57;;;5.80;;
18754;SDS011;35061;47.664;9.166;2023-05-01T03:17:38;6.20;;;5.03;;
18754;SDS011;35061;47.664;9.166;2023-05-01T03:20:06;6.20;;;5.60;;
18754;SDS011;35061;47.664;9.166;2023-05-01T03:22:36;6.47;;;5.87;;
18754;SDS011;35061;47.664;9.166;2023-05-01T03:25:04;6.07;;;5.47;;
18754;SDS011;35061;47.664;9.166;2023-05-01T03:27:32;5.95;;;5.35;;
18754;SDS011;35061;47.664;9.166;2023-05-01T03:30:00;6.35;;;5.75;;
18754;SDS011;35061;47.664;9.166;2023-05-01T03:32:28;6.82;;;6.10;;
18754;SDS011;35061;47.664;9.166;2023-05-01T03:34:56;7.03;;;6.07;;
18754;SDS011;35061;47.664;9.166;2023-05-01T03:37:24;6.70;;;6.10;;
18754;SDS011;35061;47.664;9.166;2023-05-01T03:39:52;6.12;;;5.53;;
18754;SDS011;35061;47.664;9.166;2023-05-01T03:42:21;6.80;;;5.90;;
18754;SDS011;35061;47.664;9.166;2023-05-01T03:44:48;7.60;;;6.87;;
18754;SDS011;35061;47.664;9.166;2023-05-01T03:47:17;7.30;;;6.60;;
18754;SDS011;35061;47.664;9.166;2023-05-01T03:49:45;6.95;;;6.25;;
18754;SDS011;35061;47.664;9.166;2023-05-01T03:52:14;6.95;;;6.12;;
18754;SDS011;35061;47.664;9.166;2023-05-01T03:54:42;6.78;;;6.18;;
18754;SDS011;35061;47.664;9.166;2023-05-01T03:57:11;7.95;;;6.32;;
18754;SDS011;35061;47.664;9.166;2023-05-01T03:59:39;5.93;;;5.43;;
18754;SDS011;35061;47.664;9.166;2023-05-01T04:02:07;7.32;;;6.62;;
18754;SDS011;35061;47.664;9.166;2023-05-01T04:04:35;6.93;;;6.22;;
18754;SDS011;35061;47.664;9.166;2023-05-01T04:07:03;7.05;;;5.97;;
18754;SDS011;35061;47.664;9.166;2023-05-01T04:09:32;8.30;;;6.30;;
18754;SDS011;35061;47.664;9.166;2023-05-01T04:11:59;8.65;;;6.10;;
18754;SDS011;35061;47.664;9.166;2023-05-01T04:14:29;8.88;;;6.35;;
18754;SDS011;35061;47.664;9.166;2023-05-01T04:16:57;6.60;;;6.00;;
18754;SDS011;35061;47.664;9.166;2023-05-01T04:19:25;8.25;;;6.35;;
18754;SDS011;35061;47.664;9.166;2023-05-01T04:21:54;6.90;;;6.10;;
18754;SDS011;35061;47.664;9.166;2023-05-01T04:24:22;7.20;;;6.50;;
18754;SDS011;35061;47.664;9.166;2023-05-01T04:26:50;7.45;;;6.75;;
18754;SDS011;35061;47.664;9.166;2023-05-01T04:29:18;7.45;;;6.28;;
18754;SDS011;35061;47.664;9.166;2023-05-01T04:31:46;7.15;;;6.45;;
18754;SDS011;35061;47.664;9.166;2023-05-01T04:34:14;7.80;;;6.65;;
18754;SDS011;35061;47.664;9.166;2023-05-01T04:36:42;9.60;;;7.07;;
18754;SDS011;35061;47.664;9.166;2023-05-01T04:39:10;7.32;;;6.60;;
18754;SDS011;35061;47.664;9.166;2023-05-01T04:41:38;7.70;;;6.18;;
18754;SDS011;35061;47.664;9.166;2023-05-01T04:44:06;7.78;;;6.62;;
18754;SDS011;35061;47.664;9.166;2023-05-01T04:46:34;6.87;;;6.18;;
18754;SDS011;35061;47.664;9.166;2023-05-01T04:49:02;8.30;;;6.18;;
18754;SDS011;35061;47.664;9.166;2023-05-01T04:51:30;6.72;;;6.12;;
18754;SDS011;35061;47.664;9.166;2023-05-01T04:53:58;8.70;;;6.30;;
18754;SDS011;35061;47.664;9.166;2023-05-01T04:56:26;6.78;;;6.12;;
18754;SDS011;35061;47.664;9.166;2023-05-01T04:58:54;7.53;;;6.72;;
18754;SDS011;35061;47.664;9.166;2023-05-01T05:01:22;7.47;;;6.35;;
18754;SDS011;35061;47.664;9.166;2023-05-01T05:03:50;7.68;;;6.97;;
18754;SDS011;35061;47.664;9.166;2023-05-01T05:06:18;7.32;;;6.62;;
18754;SDS011;35061;47.664;9.166;2023-05-01T05:08:47;7.00;;;6.28;;
18754;SDS011;35061;47.664;9.166;2023-05-01T05:11:18;9.70;;;6.85;;
18754;SDS011;35061;47.664;9.166;2023-05-01T05:13:46;7.55;;;6.43;;
18754;SDS011;35061;47.664;9.166;2023-05-01T05:16:14;7.95;;;7.15;;
18754;SDS011;35061;47.664;9.166;2023-05-01T05:18:42;7.53;;;6.82;;
18754;SDS011;35061;47.664;9.166;2023-05-01T05:21:10;6.47;;;5.82;;
18754;SDS011;35061;47.664;9.166;2023-05-01T05:23:38;6.47;;;5.80;;
18754;SDS011;35061;47.664;9.166;2023-05-01T05:26:07;10.32;;;6.82;;
18754;SDS011;35061;47.664;9.166;2023-05-01T05:28:35;7.40;;;6.40;;
18754;SDS011;35061;47.664;9.166;2023-05-01T05:31:03;8.95;;;6.68;;
18754;SDS011;35061;47.664;9.166;2023-05-01T05:33:31;7.50;;;6.30;;
18754;SDS011;35061;47.664;9.166;2023-05-01T05:35:59;7.82;;;6.97;;
18754;SDS011;35061;47.664;9.166;2023-05-01T05:38:27;7.22;;;6.53;;
18754;SDS011;35061;47.664;9.166;2023-05-01T05:40:54;7.75;;;7.03;;
18754;SDS011;35061;47.664;9.166;2023-05-01T05:43:22;8.10;;;6.87;;
18754;SDS011;35061;47.664;9.166;2023-05-01T05:45:56;7.70;;;7.00;;
18754;SDS011;35061;47.664;9.166;2023-05-01T05:48:25;7.68;;;6.18;;
18754;SDS011;35061;47.664;9.166;2023-05-01T05:50:54;7.35;;;6.00;;
18754;SDS011;35061;47.664;9.166;2023-05-01T05:53:24;7.05;;;6.35;;
18754;SDS011;35061;47.664;9.166;2023-05-01T05:55:52;6.50;;;5.78;;
18754;SDS011;35061;47.664;9.166;2023-05-01T05:58:20;7.35;;;5.70;;
18754;SDS011;35061;47.664;9.166;2023-05-01T06:00:49;7.50;;;6.70;;
18754;SDS011;35061;47.664;9.166;2023-05-01T06:03:17;6.87;;;6.05;;
18754;SDS011;35061;47.664;9.166;2023-05-01T06:05:46;6.65;;;6.05;;
18754;SDS011;35061;47.664;9.166;2023-05-01T06:08:14;7.37;;;6.68;;
18754;SDS011;35061;47.664;9.166;2023-05-01T06:10:43;7.65;;;6.43;;
18754;SDS011;35061;47.664;9.166;2023-05-01T06:13:11;6.87;;;5.75;;
18754;SDS011;35061;47.664;9.166;2023-05-01T06:15:40;7.65;;;6.85;;
18754;SDS011;35061;47.664;9.166;2023-05-01T06:18:08;7.50;;;6.62;;
18754;SDS011;35061;47.664;9.166;2023-05-01T06:20:36;7.12;;;6.43;;
18754;SDS011;35061;47.664;9.166;2023-05-01T06:23:05;5.93;;;5.35;;
18754;SDS011;35061;47.664;9.166;2023-05-01T06:25:35;7.12;;;6.10;;
18754;SDS011;35061;47.664;9.166;2023-05-01T06:28:03;7.07;;;6.37;;
18754;SDS011;35061;47.664;9.166;2023-05-01T06:30:32;7.53;;;6.60;;
18754;SDS011;35061;47.664;9.166;2023-05-01T06:32:59;6.72;;;6.03;;
18754;SDS011;35061;47.664;9.166;2023-05-01T06:35:28;8.50;;;6.70;;
18754;SDS011;35061;47.664;9.166;2023-05-01T06:37:55;7.37;;;6.72;;
18754;SDS011;35061;47.664;9.166;2023-05-01T06:40:23;7.80;;;6.53;;
18754;SDS011;35061;47.664;9.166;2023-05-01T06:42:51;7.90;;;7.10;;
18754;SDS011;35061;47.664;9.166;2023-05-01T06:45:19;7.25;;;6.55;;
18754;SDS011;35061;47.664;9.166;2023-05-01T06:47:47;7.62;;;6.70;;
18754;SDS011;35061;47.664;9.166;2023-05-01T06:50:16;7.60;;;6.80;;
18754;SDS011;35061;47.664;9.166;2023-05-01T06:52:44;8.32;;;7.12;;
18754;SDS011;35061;47.664;9.166;2023-05-01T06:55:12;8.20;;;6.62;;
18754;SDS011;35061;47.664;9.166;2023-05-01T06:57:40;7.55;;;6.75;;
18754;SDS011;35061;47.664;9.166;2023-05-01T07:00:08;7.30;;;6.60;;
18754;SDS011;35061;47.664;9.166;2023-05-01T07:02:37;7.68;;;6.87;;
18754;SDS011;35061;47.664;9.166;2023-05-01T07:05:07;7.45;;;6.50;;
18754;SDS011;35061;47.664;9.166;2023-05-01T07:07:35;6.60;;;6.00;;
18754;SDS011;35061;47.664;9.166;2023-05-01T07:10:12;7.18;;;6.32;;
18754;SDS011;35061;47.664;9.166;2023-05-01T07:12:40;7.22;;;6.53;;
18754;SDS011;35061;47.664;9.166;2023-05-01T07:15:08;7.85;;;7.07;;
18754;SDS011;35061;47.664;9.166;2023-05-01T07:17:36;7.80;;;7.00;;
18754;SDS011;35061;47.664;9.166;2023-05-01T07:20:04;7.80;;;7.00;;
18754;SDS011;35061;47.664;9.166;2023-05-01T07:22:33;6.55;;;5.97;;
18754;SDS011;35061;47.664;9.166;2023-05-01T07:25:01;7.00;;;6.25;;
18754;SDS011;35061;47.664;9.166;2023-05-01T07:27:29;7.00;;;6.12;;
18754;SDS011;35061;47.664;9.166;2023-05-01T07:29:57;7.60;;;5.87;;
18754;SDS011;35061;47.664;9.166;2023-05-01T07:32:27;6.75;;;6.12;;
18754;SDS011;35061;47.664;9.166;2023-05-01T07:34:55;8.73;;;6.78;;
18754;SDS011;35061;47.664;9.166;2023-05-01T07:37:23;6.65;;;5.90;;
18754;SDS011;35061;47.664;9.166;2023-05-01T07:39:53;6.78;;;6.18;;
18754;SDS011;35061;47.664;9.166;2023-05-01T07:42:21;8.40;;;6.28;;
18754;SDS011;35061;47.664;9.166;2023-05-01T07:44:49;6.43;;;5.90;;
18754;SDS011;35061;47.664;9.166;2023-05-01T07:47:18;6.78;;;6.12;;
18754;SDS011;35061;47.664;9.166;2023-05-01T07:49:46;6.25;;;5.62;;
18754;SDS011;35061;47.664;9.166;2023-05-01T07:52:14;6.57;;;5.95;;
18754;SDS011;35061;47.664;9.166;2023-05-01T07:54:42;6.40;;;5.80;;
18754;SDS011;35061;47.664;9.166;2023-05-01T07:57:10;6.60;;;6.10;;
18754;SDS011;35061;47.664;9.166;2023-05-01T07:59:38;5.93;;;5.43;;
18754;SDS011;35061;47.664;9.166;2023-05-01T08:02:06;6.60;;;5.62;;
18754;SDS011;35061;47.664;9.166;2023-05-01T08:04:34;6.82;;;5.60;;
18754;SDS011;35061;47.664;9.166;2023-05-01T08:07:02;6.22;;;5.62;;
18754;SDS011;35061;47.664;9.166;2023-05-01T08:09:30;6.97;;;5.97;;
18754;SDS011;35061;47.664;9.166;2023-05-01T08:11:58;7.82;;;6.12;;
18754;SDS011;35061;47.664;9.166;2023-05-01T08:14:26;6.75;;;5.90;;
18754;SDS011;35061;47.664;9.166;2023-05-01T08:16:55;6.70;;;6.03;;
18754;SDS011;35061;47.664;9.166;2023-05-01T08:19:23;6.10;;;5.60;;
18754;SDS011;35061;47.664;9.166;2023-05-01T08:21:51;6.00;;;5.50;;
18754;SDS011;35061;47.664;9.166;2023-05-01T08:24:19;5.82;;;5.30;;
18754;SDS011;35061;47.664;9.166;2023-05-01T08:26:47;5.43;;;4.97;;
18754;SDS011;35061;47.664;9.166;2023-05-01T08:29:15;5.75;;;5.20;;
18754;SDS011;35061;47.664;9.166;2023-05-01T08:31:43;6.05;;;5.45;;
18754;SDS011;35061;47.664;9.166;2023-05-01T08:34:11;5.70;;;5.12;;
18754;SDS011;35061;47.664;9.166;2023-05-01T08:36:39;5.62;;;5.05;;
18754;SDS011;35061;47.664;9.166;2023-05-01T08:39:07;5.53;;;4.62;;
18754;SDS011;35061;47.664;9.166;2023-05-01T08:41:35;5.72;;;5.12;;
18754;SDS011;35061;47.664;9.166;2023-05-01T08:44:05;5.30;;;4.78;;
18754;SDS011;35061;47.664;9.166;2023-05-01T08:46:37;5.30;;;4.37;;
18754;SDS011;35061;47.664;9.166;2023-05-01T08:49:11;5.47;;;4.97;;
18754;SDS011;35061;47.664;9.166;2023-05-01T08:51:46;5.93;;;4.82;;
18754;SDS011;35061;47.664;9.166;2023-05-01T08:54:19;5.05;;;4.55;;
18754;SDS011;35061;47.664;9.166;2023-05-01T08:56:47;5.32;;;4.60;;
18754;SDS011;35061;47.664;9.166;2023-05-01T08:59:18;4.57;;;4.18;;
18754;SDS011;35061;47.664;9.166;2023-05-01T09:01:48;4.62;;;4.22;;
18754;SDS011;35061;47.664;9.166;2023-05-01T09:04:17;5.28;;;4.20;;
18754;SDS011;35061;47.664;9.166;2023-05-01T09:06:46;4.30;;;3.90;;
18754;SDS011;35061;47.664;9.166;2023-05-01T09:09:14;5.68;;;4.75;;
18754;SDS011;35061;47.664;9.166;2023-05-01T09:11:43;4.75;;;4.35;;
18754;SDS011;35061;47.664;9.166;2023-05-01T09:14:11;5.07;;;4.18;;
18754;SDS011;35061;47.664;9.166;2023-05-01T09:16:39;4.47;;;3.87;;
18754;SDS011;35061;47.664;9.166;2023-05-01T09:19:07;4.45;;;4.05;;
18754;SDS011;35061;47.664;9.166;2023-05-01T09:21:36;4.62;;;4.18;;
18754;SDS011;35061;47.664;9.166;2023-05-01T09:24:04;5.80;;;5.10;;
18754;SDS011;35061;47.664;9.166;2023-05-01T09:26:32;5.07;;;4.05;;
18754;SDS011;35061;47.664;9.166;2023-05-01T09:29:03;4.25;;;3.72;;
18754;SDS011;35061;47.664;9.166;2023-05-01T09:31:32;4.50;;;4.10;;
18754;SDS011;35061;47.664;9.166;2023-05-01T09:34:02;4.47;;;3.75;;
18754;SDS011;35061;47.664;9.166;2023-05-01T09:36:32;3.83;;;3.53;;
18754;SDS011;35061;47.664;9.166;2023-05-01T09:39:00;4.55;;;3.85;;
18754;SDS011;35061;47.664;9.166;2023-05-01T09:41:29;4.57;;;3.85;;
18754;SDS011;35061;47.664;9.166;2023-05-01T09:44:00;7.28;;;4.12;;
18754;SDS011;35061;47.664;9.166;2023-05-01T09:46:28;5.50;;;4.05;;
18754;SDS011;35061;47.664;9.166;2023-05-01T09:49:09;4.03;;;3.62;;
18754;SDS011;35061;47.664;9.166;2023-05-01T09:51:37;4.70;;;4.30;;
18754;SDS011;35061;47.664;9.166;2023-05-01T09:54:05;4.85;;;4.45;;
18754;SDS011;35061;47.664;9.166;2023-05-01T09:56:48;3.78;;;3.47;;
18754;SDS011;35061;47.664;9.166;2023-05-01T09:59:17;4.45;;;4.05;;
18754;SDS011;35061;47.664;9.166;2023-05-01T10:01:46;6.68;;;3.90;;
18754;SDS011;35061;47.664;9.166;2023-05-01T10:04:16;4.28;;;3.87;;
18754;SDS011;35061;47.664;9.166;2023-05-01T10:06:44;3.70;;;3.40;;
18754;SDS011;35061;47.664;9.166;2023-05-01T10:09:12;4.00;;;3.60;;
18754;SDS011;35061;47.664;9.166;2023-05-01T10:11:54;4.62;;;3.47;;
18754;SDS011;35061;47.664;9.166;2023-05-01T10:14:23;3.83;;;3.53;;
18754;SDS011;35061;47.664;9.166;2023-05-01T10:16:53;4.03;;;3.60;;
18754;SDS011;35061;47.664;9.166;2023-05-01T10:19:23;3.78;;;3.40;;
18754;SDS011;35061;47.664;9.166;2023-05-01T10:21:51;4.15;;;3.75;;
18754;SDS011;35061;47.664;9.166;2023-05-01T10:24:19;3.30;;;3.00;;
18754;SDS011;35061;47.664;9.166;2023-05-01T10:26:47;3.67;;;3.37;;
18754;SDS011;35061;47.664;9.166;2023-05-01T10:29:18;3.40;;;3.10;;
18754;SDS011;35061;47.664;9.166;2023-05-01T10:31:49;2.50;;;2.30;;
18754;SDS011;35061;47.664;9.166;2023-05-01T10:34:18;4.97;;;3.30;;
18754;SDS011;35061;47.664;9.166;2023-05-01T10:37:12;3.75;;;3.10;;
18754;SDS011;35061;47.664;9.166;2023-05-01T10:39:45;2.90;;;2.60;;
18754;SDS011;35061;47.664;9.166;2023-05-01T10:42:13;2.90;;;2.60;;
18754;SDS011;35061;47.664;9.166;2023-05-01T10:44:41;3.58;;;2.80;;
18754;SDS011;35061;47.664;9.166;2023-05-01T10:50:05;3.12;;;2.87;;
18754;SDS011;35061;47.664;9.166;2023-05-01T10:55:39;3.00;;;2.70;;
18754;SDS011;35061;47.664;9.166;2023-05-01T11:03:56;3.45;;;3.15;;
18754;SDS011;35061;47.664;9.166;2023-05-01T11:06:25;3.65;;;3.25;;
18754;SDS011;35061;47.664;9.166;2023-05-01T11:08:53;2.70;;;2.50;;
18754;SDS011;35061;47.664;9.166;2023-05-01T11:19:07;3.15;;;2.83;;
18754;SDS011;35061;47.664;9.166;2023-05-01T11:21:48;2.80;;;2.60;;
18754;SDS011;35061;47.664;9.166;2023-05-01T11:24:18;2.58;;;2.37;;
18754;SDS011;35061;47.664;9.166;2023-05-01T11:26:46;2.22;;;2.03;;
18754;SDS011;35061;47.664;9.166;2023-05-01T11:29:15;2.65;;;2.45;;
18754;SDS011;35061;47.664;9.166;2023-05-01T11:31:46;3.30;;;2.75;;
18754;SDS011;35061;47.664;9.166;2023-05-01T11:34:14;3.70;;;2.80;;
18754;SDS011;35061;47.664;9.166;2023-05-01T11:36:46;2.55;;;2.35;;
18754;SDS011;35061;47.664;9.166;2023-05-01T11:39:16;3.58;;;2.92;;
18754;SDS011;35061;47.664;9.166;2023-05-01T11:41:45;3.70;;;3.25;;
18754;SDS011;35061;47.664;9.166;2023-05-01T11:44:14;3.20;;;2.90;;
18754;SDS011;35061;47.664;9.166;2023-05-01T11:46:43;3.33;;;3.00;;
18754;SDS011;35061;47.664;9.166;2023-05-01T11:49:11;2.90;;;2.70;;
18754;SDS011;35061;47.664;9.166;2023-05-01T11:51:39;3.55;;;3.10;;
18754;SDS011;35061;47.664;9.166;2023-05-01T11:54:08;3.37;;;2.53;;
18754;SDS011;35061;47.664;9.166;2023-05-01T11:56:40;3.65;;;3.05;;
18754;SDS011;35061;47.664;9.166;2023-05-01T11:59:12;3.25;;;2.50;;
18754;SDS011;35061;47.664;9.166;2023-05-01T12:01:44;2.55;;;2.28;;
18754;SDS011;35061;47.664;9.166;2023-05-01T12:04:21;2.60;;;2.40;;
18754;SDS011;35061;47.664;9.166;2023-05-01T12:06:56;2.35;;;2.08;;
18754;SDS011;35061;47.664;9.166;2023-05-01T12:09:25;2.50;;;2.25;;
18754;SDS011;35061;47.664;9.166;2023-05-01T12:11:53;2.37;;;2.17;;
18754;SDS011;35061;47.664;9.166;2023-05-01T12:14:22;2.20;;;2.00;;
18754;SDS011;35061;47.664;9.166;2023-05-01T12:16:50;2.85;;;2.60;;
18754;SDS011;35061;47.664;9.166;2023-05-01T12:19:19;4.05;;;2.70;;
18754;SDS011;35061;47.664;9.166;2023-05-01T12:22:03;2.42;;;2.22;;
18754;SDS011;35061;47.664;9.166;2023-05-01T12:24:32;2.67;;;2.25;;
18754;SDS011;35061;47.664;9.166;2023-05-01T12:27:00;2.70;;;2.50;;
18754;SDS011;35061;47.664;9.166;2023-05-01T12:29:39;2.87;;;2.50;;
18754;SDS011;35061;47.664;9.166;2023-05-01T12:32:08;4.50;;;3.03;;
18754;SDS011;35061;47.664;9.166;2023-05-01T12:34:36;3.80;;;2.33;;
18754;SDS011;35061;47.664;9.166;2023-05-01T12:37:05;2.40;;;2.20;;
18754;SDS011;35061;47.664;9.166;2023-05-01T12:39:42;2.10;;;1.87;;
18754;SDS011;35061;47.664;9.166;2023-05-01T12:42:11;2.05;;;1.85;;
18754;SDS011;35061;47.664;9.166;2023-05-01T12:44:42;2.22;;;1.90;;
18754;SDS011;35061;47.664;9.166;2023-05-01T12:47:10;3.42;;;2.37;;
18754;SDS011;35061;47.664;9.166;2023-05-01T12:49:39;3.08;;;2.17;;
18754;SDS011;35061;47.664;9.166;2023-05-01T12:52:08;4.05;;;2.60;;
18754;SDS011;35061;47.664;9.166;2023-05-01T12:54:36;2.50;;;2.30;;
18754;SDS011;35061;47.664;9.166;2023-05-01T12:57:10;2.90;;;2.35;;
18754;SDS011;35061;47.664;9.166;2023-05-01T12:59:38;2.33;;;2.08;;
18754;SDS011;35061;47.664;9.166;2023-05-01T13:02:11;2.47;;;2.15;;
18754;SDS011;35061;47.664;9.166;2023-05-01T13:04:43;2.50;;;1.70;;
18754;SDS011;35061;47.664;9.166;2023-05-01T13:07:17;5.10;;;2.08;;
18754;SDS011;35061;47.664;9.166;2023-05-01T13:09:52;3.62;;;2.30;;
18754;SDS011;35061;47.664;9.166;2023-05-01T13:12:26;2.70;;;2.47;;
18754;SDS011;35061;47.664;9.166;2023-05-01T13:14:55;4.57;;;2.90;;
18754;SDS011;35061;47.664;9.166;2023-05-01T13:19:53;5.40;;;2.47;;
18754;SDS011;35061;47.664;9.166;2023-05-01T13:22:32;6.20;;;2.20;;
18754;SDS011;35061;47.664;9.166;2023-05-01T13:25:17;2.20;;;1.90;;
18754;SDS011;35061;47.664;9.166;2023-05-01T13:27:50;2.47;;;2.08;;
18754;SDS011;35061;47.664;9.166;2023-05-01T13:30:19;2.67;;;1.77;;
18754;SDS011;35061;47.664;9.166;2023-05-01T13:32:57;2.22;;;2.03;;
18754;SDS011;35061;47.664;9.166;2023-05-01T13:35:25;2.70;;;1.73;;
18754;SDS011;35061;47.664;9.166;2023-05-01T13:37:53;1.80;;;1.70;;
18754;SDS011;35061;47.664;9.166;2023-05-01T13:40:21;2.70;;;1.65;;
18754;SDS011;35061;47.664;9.166;2023-05-01T13:42:52;2.53;;;1.62;;
18754;SDS011;35061;47.664;9.166;2023-05-01T13:45:20;3.67;;;2.00;;
18754;SDS011;35061;47.664;9.166;2023-05-01T13:47:48;2.62;;;1.87;;
18754;SDS011;35061;47.664;9.166;2023-05-01T13:50:18;1.58;;;1.48;;
18754;SDS011;35061;47.664;9.166;2023-05-01T13:52:46;1.80;;;1.70;;
18754;SDS011;35061;47.664;9.166;2023-05-01T13:55:14;1.90;;;1.70;;
18754;SDS011;35061;47.664;9.166;2023-05-01T13:57:44;1.90;;;1.73;;
18754;SDS011;35061;47.664;9.166;2023-05-01T14:00:15;2.40;;;2.20;;
18754;SDS011;35061;47.664;9.166;2023-05-01T14:02:45;2.30;;;2.10;;
18754;SDS011;35061;47.664;9.166;2023-05-01T14:05:15;3.75;;;2.12;;
18754;SDS011;35061;47.664;9.166;2023-05-01T14:07:52;3.00;;;2.72;;
18754;SDS011;35061;47.664;9.166;2023-05-01T14:10:22;3.17;;;2.58;;
18754;SDS011;35061;47.664;9.166;2023-05-01T14:12:59;2.65;;;2.42;;
18754;SDS011;35061;47.664;9.166;2023-05-01T14:15:27;2.58;;;1.60;;
18754;SDS011;35061;47.664;9.166;2023-05-01T14:17:56;2.42;;;2.20;;
18754;SDS011;35061;47.664;9.166;2023-05-01T14:20:25;2.85;;;2.55;;
18754;SDS011;35061;47.664;9.166;2023-05-01T14:22:53;2.47;;;2.28;;
18754;SDS011;35061;47.664;9.166;2023-05-01T14:25:23;2.50;;;2.30;;
18754;SDS011;35061;47.664;9.166;2023-05-01T14:27:58;2.10;;;1.90;;
18754;SDS011;35061;47.664;9.166;2023-05-01T14:30:28;2.65;;;2.28;;
18754;SDS011;35061;47.664;9.166;2023-05-01T14:33:01;2.70;;;2.25;;
18754;SDS011;35061;47.664;9.166;2023-05-01T14:35:33;2.05;;;1.65;;
18754;SDS011;35061;47.664;9.166;2023-05-01T14:38:35;2.62;;;1.65;;
18754;SDS011;35061;47.664;9.166;2023-05-01T14:41:05;1.65;;;1.55;;
18754;SDS011;35061;47.664;9.166;2023-05-01T14:43:36;1.77;;;1.67;;
18754;SDS011;35061;47.664;9.166;2023-05-01T14:46:09;3.17;;;1.85;;
18754;SDS011;35061;47.664;9.166;2023-05-01T14:48:39;2.62;;;1.60;;
18754;SDS011;35061;47.664;9.166;2023-05-01T14:51:11;1.55;;;1.40;;
18754;SDS011;35061;47.664;9.166;2023-05-01T14:53:39;1.60;;;1.50;;
18754;SDS011;35061;47.664;9.166;2023-05-01T14:56:10;1.45;;;1.35;;
18754;SDS011;35061;47.664;9.166;2023-05-01T14:58:39;2.85;;;1.20;;
18754;SDS011;35061;47.664;9.166;2023-05-01T15:01:08;1.48;;;1.37;;
18754;SDS011;35061;47.664;9.166;2023-05-01T15:03:36;1.42;;;1.33;;
18754;SDS011;35061;47.664;9.166;2023-05-01T15:06:07;1.40;;;1.30;;
18754;SDS011;35061;47.664;9.166;2023-05-01T15:08:35;1.70;;;1.42;;
18754;SDS011;35061;47.664;9.166;2023-05-01T15:11:04;1.70;;;1.48;;
18754;SDS011;35061;47.664;9.166;2023-05-01T15:13:32;1.33;;;1.17;;
18754;SDS011;35061;47.664;9.166;2023-05-01T15:16:00;1.83;;;1.20;;
18754;SDS011;35061;47.664;9.166;2023-05-01T15:18:29;2.33;;;1.10;;
18754;SDS011;35061;47.664;9.166;2023-05-01T15:20:57;1.00;;;0.80;;
18754;SDS011;35061;47.664;9.166;2023-05-01T15:23:25;1.00;;;0.82;;
18754;SDS011;35061;47.664;9.166;2023-05-01T15:25:54;1.40;;;0.93;;
18754;SDS011;35061;47.664;9.166;2023-05-01T15:28:22;1.58;;;1.10;;
18754;SDS011;35061;47.664;9.166;2023-05-01T15:30:51;2.78;;;1.10;;
18754;SDS011;35061;47.664;9.166;2023-05-01T15:33:19;1.85;;;1.17;;
18754;SDS011;35061;47.664;9.166;2023-05-01T15:35:48;2.35;;;1.75;;
18754;SDS011;35061;47.664;9.166;2023-05-01T15:38:19;1.42;;;1.25;;
18754;SDS011;35061;47.664;9.166;2023-05-01T15:40:48;1.83;;;1.62;;
18754;SDS011;35061;47.664;9.166;2023-05-01T15:43:16;1.83;;;1.62;;
18754;SDS011;35061;47.664;9.166;2023-05-01T15:45:44;2.70;;;1.77;;